Time;durP1;ratioP1;P1;durP2;ratioP2;P2;SDS_P1;SDS_P2;PMS_P1;PMS_P2;Temp;Humidity;BMP_temperature;BMP_pressure;BME280_temperature;BME280_humidity;BME280_pressure;Samples;Min_cycle;Max_cycle;Signal;HPM_P1;HPM_P2
2023/06/23 00:01:02;;;;;;;6.50;2.63;;;;;;;19.64;100.00;99938.34;5058133;28;20247;-81
2023/06/23 00:03:30;;;;;;;7.70;2.87;;;;;;;19.69;100.00;99946.00;5056651;28;20209;-83
2023/06/23 00:06:00;;;;;;;4.57;2.87;;;;;;;19.71;100.00;99950.28;5055467;28;20576;-83
2023/06/23 00:08:26;;;;;;;2.30;2.10;;;;;;;19.73;100.00;99955.50;5056613;28;20301;-83
2023/06/23 00:10:52;;;;;;;2.83;2.60;;;;;;;19.74;100.00;99963.34;5056937;28;20271;-82
2023/06/23 00:13:19;;;;;;;5.63;2.50;;;;;;;19.71;100.00;99962.66;5056114;28;20262;-83
2023/06/23 00:15:45;;;;;;;5.60;2.90;;;;;;;19.71;100.00;99949.41;5052069;28;20209;-81
2023/06/23 00:18:12;;;;;;;4.10;2.30;;;;;;;19.70;100.00;99961.81;5056428;28;20200;-81
2023/06/23 00:20:38;;;;;;;3.97;2.10;;;;;;;19.69;100.00;99960.09;5055615;28;20239;-82
2023/06/23 00:23:06;;;;;;;2.93;1.93;;;;;;;19.69;100.00;99961.91;5046749;28;20205;-81
2023/06/23 00:25:32;;;;;;;2.40;1.70;;;;;;;19.68;100.00;99957.53;5041578;28;20240;-82
2023/06/23 00:27:59;;;;;;;3.33;2.03;;;;;;;19.65;100.00;99958.59;5054525;28;20232;-83
2023/06/23 00:30:26;;;;;;;2.97;2.10;;;;;;;19.62;100.00;99950.84;5055337;28;20666;-81
2023/06/23 00:32:52;;;;;;;3.73;2.10;;;;;;;19.58;100.00;99949.34;5055206;28;20251;-81
2023/06/23 00:35:19;;;;;;;2.53;1.63;;;;;;;19.59;100.00;99951.03;5055782;28;20205;-84
2023/06/23 00:37:45;;;;;;;5.30;2.00;;;;;;;19.59;100.00;99959.00;5054709;28;20234;-82
2023/06/23 00:40:15;;;;;;;2.30;2.10;;;;;;;19.57;100.00;99961.72;5046722;28;20267;-82
2023/06/23 00:42:46;;;;;;;6.80;2.30;;;;;;;19.55;100.00;99966.28;5054910;28;20208;-82
2023/06/23 00:45:13;;;;;;;2.67;2.47;;;;;;;19.59;100.00;99975.72;5054946;28;20209;-82
2023/06/23 00:47:42;;;;;;;4.33;1.90;;;;;;;19.62;100.00;99972.00;5057551;28;20255;-82
2023/06/23 00:50:09;;;;;;;3.70;2.30;;;;;;;19.62;100.00;99969.38;5056377;28;20243;-83
2023/06/23 00:52:35;;;;;;;9.23;2.10;;;;;;;19.63;100.00;99979.03;5045708;28;20260;-84
2023/06/23 00:55:04;;;;;;;5.83;1.90;;;;;;;19.65;100.00;99971.84;5053381;28;20281;-84
2023/06/23 00:57:32;;;;;;;4.57;2.20;;;;;;;19.63;100.00;99973.72;5054327;28;20224;-82
2023/06/23 00:59:59;;;;;;;3.53;2.13;;;;;;;19.62;100.00;99972.88;5053873;28;20205;-84
2023/06/23 01:02:27;;;;;;;2.73;2.53;;;;;;;19.62;100.00;99967.59;5054937;28;20209;-82
2023/06/23 01:04:54;;;;;;;3.27;2.57;;;;;;;19.59;100.00;99975.72;5055352;28;20217;-81
2023/06/23 01:07:30;;;;;;;4.50;2.73;;;;;;;19.60;100.00;99971.25;5046745;28;20269;-82
2023/06/23 01:10:04;;;;;;;4.27;3.20;;;;;;;19.61;100.00;99980.91;5055397;28;20211;-83
2023/06/23 01:12:39;;;;;;;6.67;4.10;;;;;;;19.65;100.00;99985.06;5055326;28;20211;-82
2023/06/23 01:15:12;;;;;;;7.27;4.00;;;;;;;19.65;100.00;99987.72;5055290;28;20212;-83
2023/06/23 01:17:45;;;;;;;6.47;4.27;;;;;;;19.64;100.00;99986.00;5054974;28;20229;-82
2023/06/23 01:20:21;;;;;;;5.67;3.33;;;;;;;19.65;100.00;99988.56;5052495;28;20746;-83
2023/06/23 01:23:04;;;;;;;7.20;4.83;;;;;;;19.65;100.00;99998.31;5038896;28;20210;-81
2023/06/23 01:25:39;;;;;;;6.33;4.53;;;;;;;19.65;100.00;100003.59;5055354;28;20205;-82
2023/06/23 01:28:46;;;;;;;7.27;5.87;;;;;;;19.62;100.00;100015.25;5054344;28;20273;-84
2023/06/23 01:31:15;;;;;;;6.30;5.80;;;;;;;19.64;100.00;99999.25;5050839;28;20258;-84
2023/06/23 01:33:48;;;;;;;7.53;6.00;;;;;;;19.65;100.00;99995.66;5054700;28;20218;-84
2023/06/23 01:36:20;;;;;;;7.73;7.03;;;;;;;19.60;100.00;100000.38;5054207;28;20259;-83
2023/06/23 01:38:50;;;;;;;7.50;6.83;;;;;;;19.57;100.00;99990.84;5054879;28;20217;-82
2023/06/23 01:41:21;;;;;;;7.87;7.13;;;;;;;19.57;100.00;99990.00;5039207;28;20251;-83
2023/06/23 01:43:53;;;;;;;7.43;6.70;;;;;;;19.59;100.00;99996.91;5053742;28;20217;-82
2023/06/23 01:46:25;;;;;;;7.27;6.57;;;;;;;19.61;100.00;100005.59;5054439;28;20631;-83
2023/06/23 01:48:56;;;;;;;8.00;7.20;;;;;;;19.61;100.00;100010.06;5054803;28;20212;-83
2023/06/23 01:51:26;;;;;;;11.07;6.93;;;;;;;19.62;100.00;100025.84;5054273;28;20214;-81
2023/06/23 01:53:54;;;;;;;7.43;6.83;;;;;;;19.60;100.00;100017.16;5051987;28;20208;-82
2023/06/23 01:56:23;;;;;;;8.17;7.07;;;;;;;19.59;100.00;100010.13;5055317;28;20768;-83
2023/06/23 01:58:51;;;;;;;12.13;7.70;;;;;;;19.55;100.00;99995.41;5055362;28;20242;-83
2023/06/23 02:01:19;;;;;;;8.47;7.77;;;;;;;19.58;100.00;100005.81;5051151;28;20716;-83
2023/06/23 02:03:48;;;;;;;9.60;7.77;;;;;;;19.59;100.00;100010.13;5051075;28;20268;-82
2023/06/23 02:06:15;;;;;;;6.97;6.27;;;;;;;19.58;100.00;100007.59;5039658;28;20283;-84
2023/06/23 02:08:42;;;;;;;8.60;7.90;;;;;;;19.56;100.00;100013.00;5045650;28;20216;-84
2023/06/23 02:11:10;;;;;;;7.77;7.07;;;;;;;19.56;100.00;100012.13;5054395;28;20261;-81
2023/06/23 02:13:39;;;;;;;7.47;6.93;;;;;;;19.58;100.00;100005.81;5054112;28;20205;-84
2023/06/23 02:16:08;;;;;;;7.87;7.17;;;;;;;19.59;100.00;100004.00;5055798;28;20764;-83
2023/06/23 02:18:35;;;;;;;7.30;6.77;;;;;;;19.58;100.00;100007.59;5053444;28;20216;-82
2023/06/23 02:21:03;;;;;;;7.63;6.93;;;;;;;19.57;100.00;100001.44;5056019;28;20204;-84
2023/06/23 02:23:30;;;;;;;7.83;7.10;;;;;;;19.56;100.00;100012.13;5051227;28;20204;-85
2023/06/23 02:25:57;;;;;;;7.47;6.90;;;;;;;19.58;100.00;100002.28;5057318;28;20262;-83
2023/06/23 02:28:24;;;;;;;7.83;7.13;;;;;;;19.53;100.00;99992.00;5058745;28;20259;-82
2023/06/23 02:30:52;;;;;;;9.57;7.37;;;;;;;19.55;100.00;100002.50;5061585;28;20209;-83
2023/06/23 02:33:20;;;;;;;7.87;7.27;;;;;;;19.51;100.00;99996.53;5061582;28;20621;-83
2023/06/23 02:35:46;;;;;;;9.23;7.83;;;;;;;19.53;100.00;99997.28;5061411;28;20210;-84
2023/06/23 02:38:16;;;;;;;8.80;8.20;;;;;;;19.52;100.00;99990.28;5061121;28;20212;-82
2023/06/23 02:40:45;;;;;;;9.80;8.83;;;;;;;19.54;100.00;100003.44;5063391;28;20216;-80
2023/06/23 02:43:17;;;;;;;9.17;8.40;;;;;;;19.52;100.00;99997.38;5051938;28;20260;-82
2023/06/23 02:45:47;;;;;;;9.27;8.50;;;;;;;19.51;100.00;99998.34;5058233;28;20231;-82
2023/06/23 02:48:16;;;;;;;8.60;7.90;;;;;;;19.52;100.00;100000.03;5057454;28;20263;-83
2023/06/23 02:50:45;;;;;;;8.43;7.83;;;;;;;19.52;100.00;99989.44;5057551;28;20255;-82
2023/06/23 02:53:17;;;;;;;9.13;8.47;;;;;;;19.51;100.00;99991.25;5043785;28;20284;-84
2023/06/23 02:55:47;;;;;;;9.27;8.47;;;;;;;19.51;100.00;99991.25;5048719;28;20216;-81
2023/06/23 02:58:16;;;;;;;9.10;8.37;;;;;;;19.49;100.00;99992.31;5049917;28;20216;-81
2023/06/23 03:00:43;;;;;;;12.50;9.97;;;;;;;19.50;100.00;99997.47;5057355;28;20243;-83
2023/06/23 03:03:13;;;;;;;10.47;9.57;;;;;;;19.48;100.00;99988.78;5056708;28;20242;-83
2023/06/23 03:05:39;;;;;;;10.67;9.87;;;;;;;19.52;100.00;99997.38;5057525;28;20675;-84
2023/06/23 03:08:07;;;;;;;10.10;9.50;;;;;;;19.51;100.00;100001.00;5056615;28;20229;-83
2023/06/23 03:10:35;;;;;;;11.10;10.30;;;;;;;19.53;100.00;100020.28;5058230;28;20209;-84
2023/06/23 03:13:01;;;;;;;11.63;10.73;;;;;;;19.53;100.00;100007.88;5057593;28;20981;-83
2023/06/23 03:15:29;;;;;;;12.03;10.90;;;;;;;19.51;100.00;100011.59;5057674;28;20262;-83
2023/06/23 03:18:01;;;;;;;11.73;11.03;;;;;;;19.54;100.00;100024.59;5058449;28;20299;-84
2023/06/23 03:20:34;;;;;;;13.67;12.80;;;;;;;19.53;100.00;100029.06;5058706;28;20204;-82
2023/06/23 03:23:04;;;;;;;13.97;12.87;;;;;;;19.49;100.00;100010.84;5053588;28;20215;-82
2023/06/23 03:25:32;;;;;;;13.43;12.33;;;;;;;19.50;100.00;100017.81;5050156;28;20282;-85
2023/06/23 03:28:02;;;;;;;14.07;13.27;;;;;;;19.47;100.00;100012.72;5057222;28;20244;-83
2023/06/23 03:30:34;;;;;;;15.07;13.97;;;;;;;19.45;100.00;100015.47;5057335;28;20206;-83
2023/06/23 03:33:04;;;;;;;15.13;14.10;;;;;;;19.45;100.00;100007.53;5058872;28;20564;-85
2023/06/23 03:35:33;;;;;;;15.27;14.17;;;;;;;19.42;100.00;100008.56;5058730;28;20676;-84
2023/06/23 03:38:04;;;;;;;15.47;14.57;;;;;;;19.44;100.00;100016.38;5055745;28;20221;-84
2023/06/23 03:40:37;;;;;;;16.03;14.97;;;;;;;19.44;100.00;100019.91;5052179;28;20204;-85
2023/06/23 03:43:09;;;;;;;15.83;14.83;;;;;;;19.47;100.00;100018.88;5058881;28;20208;-82
2023/06/23 03:45:38;;;;;;;16.70;15.47;;;;;;;19.45;100.00;100026.91;5054496;28;20212;-85
2023/06/23 03:48:09;;;;;;;16.40;15.30;;;;;;;19.44;100.00;100013.75;5040810;28;20264;-85
2023/06/23 03:50:37;;;;;;;15.87;14.97;;;;;;;19.46;100.00;100017.16;5058768;28;20208;-85
2023/06/23 03:53:05;;;;;;;17.00;15.80;;;;;;;19.44;100.00;100024.34;5058702;28;20235;-85
2023/06/23 03:55:35;;;;;;;16.30;15.20;;;;;;;19.43;100.00;100020.00;5059433;28;20217;-85
2023/06/23 03:58:04;;;;;;;17.70;16.17;;;;;;;19.44;100.00;100025.22;5076497;28;20248;-85
2023/06/23 04:00:32;;;;;;;17.63;16.47;;;;;;;19.45;100.00;100032.19;5059870;28;20213;-84
2023/06/23 04:03:02;;;;;;;17.47;16.23;;;;;;;19.46;100.00;100038.31;5059644;28;20262;-85
2023/06/23 04:05:31;;;;;;;20.43;18.80;;;;;;;19.44;100.00;100035.78;5050536;28;20202;-84
2023/06/23 04:07:59;;;;;;;19.47;17.83;;;;;;;19.45;100.00;100044.59;5058684;28;20287;-84
2023/06/23 04:10:26;;;;;;;19.70;17.80;;;;;;;19.45;100.00;100050.72;5059204;28;20274;-84
2023/06/23 04:12:56;;;;;;;18.90;17.50;;;;;;;19.41;100.00;100054.50;5059195;28;20212;-83
2023/06/23 04:15:25;;;;;;;18.90;17.43;;;;;;;19.37;100.00;100046.84;5043554;28;20270;-84
2023/06/23 04:17:54;;;;;;;17.87;16.67;;;;;;;19.38;100.00;100067.06;5046185;28;20298;-84
2023/06/23 04:20:22;;;;;;;19.33;17.93;;;;;;;19.38;100.00;100053.84;5072816;28;20231;-85
2023/06/23 04:22:50;;;;;;;19.43;17.83;;;;;;;19.36;100.00;100061.88;5057752;28;20216;-82
2023/06/23 04:25:19;;;;;;;18.60;17.20;;;;;;;19.32;100.00;100070.94;5051616;28;20212;-83
2023/06/23 04:27:48;;;;;;;18.83;17.43;;;;;;;19.30;100.00;100078.13;5060258;28;20236;-84
2023/06/23 04:30:19;;;;;;;17.07;15.97;;;;;;;19.29;100.00;100078.25;5056942;28;20267;-85
2023/06/23 04:32:46;;;;;;;17.97;16.77;;;;;;;19.26;100.00;100079.25;5055287;28;20213;-85
2023/06/23 04:35:13;;;;;;;17.60;16.40;;;;;;;19.25;100.00;100094.28;5068415;28;20212;-84
2023/06/23 04:37:43;;;;;;;17.97;16.73;;;;;;;19.24;100.00;100094.38;5075715;28;20225;-83
2023/06/23 04:40:15;;;;;;;16.67;15.57;;;;;;;19.26;100.00;100089.84;5075905;28;20230;-84
2023/06/23 04:42:45;;;;;;;16.33;15.13;;;;;;;19.25;100.00;100098.75;5076021;28;20227;-83
2023/06/23 04:45:17;;;;;;;16.13;14.83;;;;;;;19.24;100.00;100099.66;5074165;28;20209;-83
2023/06/23 04:47:46;;;;;;;17.63;16.20;;;;;;;19.19;100.00;100105.25;5047144;28;20675;-84
2023/06/23 04:50:16;;;;;;;14.23;13.23;;;;;;;19.19;100.00;100105.25;5054297;28;20609;-81
2023/06/23 04:52:49;;;;;;;14.10;13.17;;;;;;;19.16;100.00;100099.28;5054524;28;20209;-81
2023/06/23 04:55:19;;;;;;;14.03;13.17;;;;;;;19.11;100.00;100107.50;5047354;28;20279;-82
2023/06/23 04:57:48;;;;;;;13.93;13.13;;;;;;;19.08;100.00;100109.47;5047504;28;20224;-83
2023/06/23 05:00:21;;;;;;;13.07;12.20;;;;;;;19.07;100.00;100110.41;5055389;28;20212;-81
2023/06/23 05:02:49;;;;;;;11.77;11.07;;;;;;;19.01;100.00;100114.28;5056655;28;20212;-81
2023/06/23 05:05:21;;;;;;;12.23;11.43;;;;;;;19.01;100.00;100112.50;5048332;28;20297;-81
2023/06/23 05:07:50;;;;;;;11.53;10.80;;;;;;;18.99;100.00;100126.75;5056470;28;20286;-82
2023/06/23 05:10:19;;;;;;;10.87;10.07;;;;;;;18.96;100.00;100125.13;5049653;28;20204;-83
2023/06/23 05:12:48;;;;;;;10.60;9.80;;;;;;;18.89;100.00;100142.31;5057441;28;20209;-83
2023/06/23 05:15:18;;;;;;;10.03;9.43;;;;;;;18.82;100.00;100143.59;5054099;28;20634;-83
2023/06/23 05:17:48;;;;;;;11.03;10.27;;;;;;;18.81;100.00;100144.53;5051583;28;20228;-81
2023/06/23 05:20:17;;;;;;;12.10;11.20;;;;;;;18.81;100.00;100148.06;5046456;28;20204;-83
2023/06/23 05:22:46;;;;;;;11.67;10.97;;;;;;;18.75;100.00;100160.72;5049382;28;20207;-83
2023/06/23 05:25:13;;;;;;;11.10;10.30;;;;;;;18.72;100.00;100161.75;5053229;28;20619;-84
2023/06/23 05:27:44;;;;;;;10.30;9.67;;;;;;;18.61;100.00;100164.16;5050017;28;20235;-81
2023/06/23 05:30:14;;;;;;;10.80;10.10;;;;;;;18.61;100.00;100174.72;5055694;28;20205;-83
2023/06/23 05:32:43;;;;;;;9.53;8.93;;;;;;;18.62;100.00;100187.88;5051692;28;20625;-83
2023/06/23 05:35:11;;;;;;;9.53;8.93;;;;;;;18.61;100.00;100190.59;5055652;28;20216;-82
2023/06/23 05:37:40;;;;;;;10.10;9.47;;;;;;;18.53;100.00;100195.47;5049500;28;20233;-84
2023/06/23 05:40:09;;;;;;;8.43;7.93;;;;;;;18.52;100.00;100191.13;5045933;28;20259;-84
2023/06/23 05:42:36;;;;;;;7.73;7.23;;;;;;;18.51;100.00;100203.47;5047221;28;20208;-82
2023/06/23 05:45:03;;;;;;;8.13;7.63;;;;;;;18.46;100.00;100193.16;5055075;28;20281;-85
2023/06/23 05:47:35;;;;;;;7.53;7.03;;;;;;;18.42;100.00;100193.44;5045794;28;20690;-83
2023/06/23 05:50:12;;;;;;;7.17;6.77;;;;;;;18.41;100.00;100183.78;5052342;28;20211;-83
2023/06/23 05:52:41;;;;;;;7.00;6.53;;;;;;;18.46;100.00;100209.03;5049523;28;20351;-83
2023/06/23 05:55:12;;;;;;;5.50;5.10;;;;;;;18.44;100.00;100216.19;5044908;28;20213;-85
2023/06/23 05:57:42;;;;;;;5.57;5.17;;;;;;;18.33;100.00;100242.34;5055745;28;20229;-85
2023/06/23 06:00:13;;;;;;;4.80;4.50;;;;;;;18.28;100.00;100244.41;5041531;28;20267;-87
2023/06/23 06:02:42;;;;;;;4.87;4.53;;;;;;;18.17;100.00;100252.88;5047977;28;20223;-83
2023/06/23 06:05:17;;;;;;;5.07;4.67;;;;;;;18.22;100.00;100265.88;5048964;28;20275;-81
2023/06/23 06:07:45;;;;;;;4.80;4.50;;;;;;;18.17;100.00;100262.59;5057639;28;20289;-84
2023/06/23 06:10:14;;;;;;;4.23;3.97;;;;;;;18.15;100.00;100260.03;5050441;28;20728;-86
2023/06/23 06:12:44;;;;;;;3.10;2.90;;;;;;;18.20;100.00;100273.03;5050022;28;20213;-87
2023/06/23 06:15:12;;;;;;;2.40;2.30;;;;;;;17.98;100.00;100290.00;5047550;28;20212;-83
2023/06/23 06:17:41;;;;;;;2.50;2.30;;;;;;;17.98;100.00;100303.22;5052582;28;20231;-88
2023/06/23 06:20:12;;;;;;;2.10;2.00;;;;;;;17.97;100.00;100312.03;5059167;28;20208;-86
2023/06/23 06:22:41;;;;;;;1.53;1.43;;;;;;;17.86;100.00;100319.69;5050217;28;20205;-87
2023/06/23 06:25:10;;;;;;;2.13;2.03;;;;;;;17.85;100.00;100332.00;5057239;28;20205;-84
2023/06/23 06:27:38;;;;;;;1.63;1.53;;;;;;;17.66;100.00;100324.16;5058022;28;20229;-85
2023/06/23 06:30:07;;;;;;;2.20;2.03;;;;;;;17.67;100.00;100325.00;5059245;28;20218;-84
2023/06/23 06:32:38;;;;;;;2.10;2.00;;;;;;;17.49;100.00;100337.34;5059124;28;20549;-85
2023/06/23 06:35:07;;;;;;;2.67;2.47;;;;;;;17.38;100.00;100345.78;5059284;28;20553;-83
2023/06/23 06:37:38;;;;;;;2.57;2.40;;;;;;;17.21;100.00;100356.28;5053094;28;20232;-84
2023/06/23 06:40:07;;;;;;;3.00;2.70;;;;;;;17.33;100.00;100342.50;5056287;28;20739;-85
2023/06/23 06:42:33;;;;;;;3.30;2.90;;;;;;;17.30;100.00;100379.56;5052434;28;20215;-84
2023/06/23 06:45:00;;;;;;;3.47;3.17;;;;;;;17.26;100.00;100380.66;5049993;28;20582;-87
2023/06/23 06:47:30;;;;;;;4.07;3.67;;;;;;;17.19;100.00;100400.34;5048677;28;20285;-84
2023/06/23 06:49:58;;;;;;;3.53;3.23;;;;;;;17.17;100.00;100403.06;5058250;28;20208;-87
2023/06/23 06:52:27;;;;;;;3.80;3.40;;;;;;;17.22;100.00;100410.75;5056189;28;20237;-85
2023/06/23 06:54:55;;;;;;;3.90;3.60;;;;;;;17.15;100.00;100430.44;5046686;28;20265;-84
2023/06/23 06:57:21;;;;;;;3.60;3.40;;;;;;;17.17;100.00;100428.59;5055721;28;20279;-84
2023/06/23 06:59:48;;;;;;;3.57;3.37;;;;;;;17.20;100.00;100446.91;5058559;28;20208;-85
2023/06/23 07:02:14;;;;;;;3.77;3.47;;;;;;;17.17;100.00;100476.91;5048282;28;20207;-85
2023/06/23 07:04:41;;;;;;;4.13;3.83;;;;;;;17.18;100.00;100452.25;5040979;28;20686;-84
2023/06/23 07:07:08;;;;;;;3.43;3.23;;;;;;;17.24;100.00;100490.69;5049869;28;20236;-83
2023/06/23 07:09:34;;;;;;;3.27;3.07;;;;;;;17.24;100.00;100501.22;5048209;28;20286;-86
2023/06/23 07:12:02;;;;;;;4.80;4.27;;;;;;;17.23;100.00;100512.72;5056660;28;20207;-86
2023/06/23 07:14:28;;;;;;;3.00;2.80;;;;;;;17.21;100.00;100528.63;5041484;28;20265;-86
2023/06/23 07:16:55;;;;;;;3.17;2.90;;;;;;;17.28;100.00;100537.09;5065674;28;20222;-88
2023/06/23 07:19:21;;;;;;;4.10;3.60;;;;;;;17.16;100.00;100527.09;5055262;28;20204;-87
2023/06/23 07:21:48;;;;;;;5.27;4.97;;;;;;;16.98;100.00;100529.63;5050333;28;20211;-83
2023/06/23 07:24:14;;;;;;;6.17;5.57;;;;;;;16.94;100.00;100508.75;5056389;28;20253;-84
2023/06/23 07:26:40;;;;;;;6.47;6.07;;;;;;;16.75;100.00;100541.16;5053232;28;20310;-84
2023/06/23 07:29:08;;;;;;;6.13;5.73;;;;;;;16.61;100.00;100535.59;5054271;28;20288;-85
2023/06/23 07:31:37;;;;;;;6.53;5.93;;;;;;;16.64;100.00;100527.56;5057378;28;20332;-83
2023/06/23 07:34:03;;;;;;;6.40;6.00;;;;;;;16.54;100.00;100532.38;5049531;28;20206;-85
2023/06/23 07:36:30;;;;;;;6.57;6.07;;;;;;;16.53;100.00;100514.88;5058625;28;20251;-82
2023/06/23 07:38:57;;;;;;;6.33;5.73;;;;;;;16.47;100.00;100534.44;5059382;28;20201;-85
2023/06/23 07:41:23;;;;;;;6.10;5.70;;;;;;;16.40;100.00;100530.31;5058539;28;20731;-84
2023/06/23 07:43:49;;;;;;;5.80;5.40;;;;;;;16.18;100.00;100545.31;5057031;28;20304;-85
2023/06/23 07:46:17;;;;;;;6.57;6.07;;;;;;;16.08;100.00;100521.97;5051611;28;20282;-85
2023/06/23 07:48:44;;;;;;;5.80;5.43;;;;;;;16.14;100.00;100546.34;5044021;28;20222;-85
2023/06/23 07:51:10;;;;;;;6.40;6.00;;;;;;;16.03;100.00;100536.22;5054841;28;20201;-83
2023/06/23 07:53:36;;;;;;;6.10;5.70;;;;;;;16.16;100.00;100555.06;5057047;28;20690;-85
2023/06/23 07:56:03;;;;;;;6.23;5.73;;;;;;;15.97;100.00;100549.66;5050117;28;20712;-83
2023/06/23 07:58:29;;;;;;;6.73;6.23;;;;;;;15.94;100.00;100552.41;5057886;28;20657;-85
2023/06/23 08:00:55;;;;;;;7.57;6.87;;;;;;;16.16;100.00;100555.06;5058400;28;20677;-83
2023/06/23 08:03:23;;;;;;;7.70;7.10;;;;;;;16.18;100.00;100572.50;5056612;28;20280;-87
2023/06/23 08:05:50;;;;;;;7.03;6.53;;;;;;;16.09;100.00;100593.91;5055896;28;20203;-86
2023/06/23 08:08:16;;;;;;;7.83;7.23;;;;;;;16.09;100.00;100599.19;5057347;28;20226;-82
2023/06/23 08:10:43;;;;;;;7.13;6.53;;;;;;;16.00;100.00;100603.06;5058355;28;20232;-83
2023/06/23 08:13:10;;;;;;;7.73;7.13;;;;;;;16.03;100.00;100607.31;5057401;28;20210;-85
2023/06/23 08:15:36;;;;;;;7.27;6.77;;;;;;;16.16;100.00;100628.78;5056596;28;20209;-84
2023/06/23 08:18:03;;;;;;;7.27;6.60;;;;;;;16.21;100.00;100654.03;5045552;28;20244;-85
2023/06/23 08:20:30;;;;;;;8.43;7.60;;;;;;;16.16;100.00;100644.59;5058021;28;20199;-86
2023/06/23 08:22:57;;;;;;;7.27;6.77;;;;;;;16.14;100.00;100646.44;5057283;28;20201;-85
2023/06/23 08:25:23;;;;;;;6.30;5.90;;;;;;;16.16;100.00;100660.41;5056214;28;20218;-82
2023/06/23 08:27:49;;;;;;;6.10;5.70;;;;;;;16.04;100.00;100665.22;5055542;28;20638;-83
2023/06/23 08:30:17;;;;;;;5.00;4.60;;;;;;;16.16;100.00;100678.84;5046642;28;20227;-84
2023/06/23 08:32:43;;;;;;;5.50;5.10;;;;;;;16.21;100.00;100680.38;5055733;28;20675;-86
2023/06/23 08:35:09;;;;;;;4.90;4.57;;;;;;;16.20;100.00;100712.88;5051960;28;20229;-84
2023/06/23 08:37:37;;;;;;;5.33;4.93;;;;;;;16.16;100.00;100715.69;5053843;28;20230;-84
2023/06/23 08:40:04;;;;;;;5.33;4.93;;;;;;;16.27;100.00;100714.38;5055658;28;20198;-84
2023/06/23 08:42:32;;;;;;;7.30;6.80;;;;;;;16.27;100.00;100724.03;5046381;28;20212;-84
2023/06/23 08:45:03;;;;;;;7.77;7.27;;;;;;;16.22;100.00;100726.00;5053747;28;20634;-81
2023/06/23 08:47:31;;;;;;;7.90;7.30;;;;;;;16.35;100.00;100724.63;5055318;28;20233;-83
2023/06/23 08:49:58;;;;;;;8.23;7.73;;;;;;;16.18;100.00;100727.88;5057446;28;20253;-84
2023/06/23 08:52:25;;;;;;;9.03;8.43;;;;;;;16.26;100.00;100738.13;5055060;28;20753;-82
2023/06/23 08:54:53;;;;;;;9.03;8.43;;;;;;;16.15;100.00;100740.31;5054766;28;20220;-83
2023/06/23 08:57:20;;;;;;;10.37;9.67;;;;;;;16.21;100.00;100754.13;5055586;28;20222;-83
2023/06/23 08:59:47;;;;;;;9.03;8.43;;;;;;;16.23;100.00;100760.19;5056951;28;20678;-84
2023/06/23 09:02:14;;;;;;;8.97;8.37;;;;;;;16.27;100.00;100771.44;5056120;28;20248;-81
2023/06/23 09:04:40;;;;;;;9.17;8.57;;;;;;;16.22;100.00;100789.22;5053410;28;20207;-83
2023/06/23 09:07:06;;;;;;;9.90;9.20;;;;;;;16.20;100.00;100789.28;5059614;28;20211;-82
2023/06/23 09:09:33;;;;;;;8.43;7.93;;;;;;;15.95;100.00;100786.66;5067273;28;20227;-79
2023/06/23 09:12:01;;;;;;;9.40;8.80;;;;;;;16.00;100.00;100792.63;5056254;28;20752;-81
2023/06/23 09:14:30;;;;;;;10.87;10.07;;;;;;;16.02;100.00;100830.31;5047240;28;20265;-83
2023/06/23 09:16:58;;;;;;;10.07;9.27;;;;;;;16.13;100.00;100822.00;5054301;28;20302;-84
2023/06/23 09:19:24;;;;;;;9.37;8.73;;;;;;;16.19;100.00;100834.94;5055425;28;20268;-86
2023/06/23 09:21:52;;;;;;;9.57;8.83;;;;;;;16.22;100.00;100858.56;5055431;28;20746;-85
2023/06/23 09:24:19;;;;;;;9.67;8.77;;;;;;;16.17;100.00;100841.19;5054358;28;20665;-83
2023/06/23 09:26:48;;;;;;;9.87;9.07;;;;;;;16.14;100.00;100836.91;5055234;28;20274;-84
2023/06/23 09:29:18;;;;;;;9.57;8.87;;;;;;;16.26;100.00;100862.81;5055820;28;20225;-82
2023/06/23 09:31:46;;;;;;;10.37;9.57;;;;;;;16.40;100.00;100878.13;5055719;28;20213;-80
2023/06/23 09:34:21;;;;;;;9.00;8.40;;;;;;;16.17;100.00;100868.38;5051462;28;20206;-84
2023/06/23 09:36:48;;;;;;;8.10;7.50;;;;;;;16.07;100.00;100870.50;5049488;28;20659;-82
2023/06/23 09:39:15;;;;;;;7.83;7.27;;;;;;;16.22;100.00;100881.41;5054687;28;20205;-84
2023/06/23 09:41:46;;;;;;;8.03;7.43;;;;;;;16.30;100.00;100895.16;5053967;28;20656;-82
2023/06/23 09:44:14;;;;;;;7.90;7.23;;;;;;;16.40;100.00;100885.16;5054758;28;20670;-84
2023/06/23 09:46:43;;;;;;;8.73;7.90;;;;;;;16.55;100.00;100918.00;5055335;28;20303;-84
2023/06/23 09:49:09;;;;;;;7.90;7.30;;;;;;;16.50;100.00;100935.78;5046919;28;20234;-80
2023/06/23 09:51:37;;;;;;;6.70;6.20;;;;;;;16.57;100.00;100956.59;4694656;28;10000573;-83
2023/06/23 09:54:03;;;;;;;7.87;7.17;;;;;;;16.57;100.00;100958.34;5047528;28;20199;-83
2023/06/23 09:56:30;;;;;;;7.13;6.63;;;;;;;16.31;100.00;100946.94;5053390;28;20254;-82
2023/06/23 09:58:56;;;;;;;7.60;7.00;;;;;;;16.37;100.00;100952.00;5048866;28;20210;-83
2023/06/23 10:01:23;;;;;;;7.60;7.00;;;;;;;16.34;100.00;100956.53;5058622;28;20263;-82
2023/06/23 10:03:52;;;;;;;8.00;7.20;;;;;;;16.35;100.00;100945.94;5051488;28;20206;-81
2023/06/23 10:06:24;;;;;;;8.03;7.43;;;;;;;16.28;100.00;100937.38;5044350;28;20222;-83
2023/06/23 10:08:54;;;;;;;7.50;6.90;;;;;;;16.28;100.00;100918.06;5051858;28;20233;-82
2023/06/23 10:11:28;;;;;;;7.23;6.73;;;;;;;16.20;100.00;100925.38;5051414;28;20206;-83
2023/06/23 10:13:55;;;;;;;8.13;7.53;;;;;;;16.19;100.00;100964.00;5051993;28;20205;-84
2023/06/23 10:16:21;;;;;;;7.70;7.10;;;;;;;16.14;100.00;100939.63;5052180;28;20256;-83
2023/06/23 10:18:47;;;;;;;7.60;7.00;;;;;;;16.19;100.00;100942.09;5047748;28;20201;-82
2023/06/23 10:21:15;;;;;;;8.60;7.93;;;;;;;16.23;100.00;100944.59;5048406;28;20268;-81
2023/06/23 10:23:42;;;;;;;8.10;7.50;;;;;;;16.15;100.00;100953.66;5046759;28;20252;-82
2023/06/23 10:26:10;;;;;;;8.30;7.63;;;;;;;16.19;100.00;100936.81;5047203;28;20230;-82
2023/06/23 10:28:39;;;;;;;7.87;7.27;;;;;;;16.18;100.00;100941.25;5050976;28;20642;-80
2023/06/23 10:31:07;;;;;;;8.20;7.60;;;;;;;16.21;100.00;100958.69;5051542;28;20569;-84
2023/06/23 10:33:37;;;;;;;8.20;7.50;;;;;;;16.28;100.00;100961.06;5050488;28;20198;-82
2023/06/23 10:36:06;;;;;;;7.53;6.93;;;;;;;16.33;100.00;100963.53;5051169;28;20222;-84
2023/06/23 10:38:36;;;;;;;8.53;7.83;;;;;;;16.28;100.00;100968.97;5051002;28;20203;-83
2023/06/23 10:41:03;;;;;;;8.77;8.07;;;;;;;16.31;100.00;100975.91;5051158;28;20564;-83
2023/06/23 10:43:34;;;;;;;8.63;7.93;;;;;;;16.36;100.00;100973.13;5050890;28;20213;-82
2023/06/23 10:46:03;;;;;;;8.47;7.87;;;;;;;16.22;100.00;101016.59;5050775;28;20890;-82
2023/06/23 10:48:30;;;;;;;9.20;8.40;;;;;;;16.22;100.00;100981.50;5049683;28;20704;-83
2023/06/23 10:50:57;;;;;;;8.70;8.10;;;;;;;16.25;100.00;100998.09;5033525;28;20234;-82
2023/06/23 10:53:28;;;;;;;9.60;8.90;;;;;;;16.28;100.00;101011.13;5052124;28;20215;-80
2023/06/23 10:55:57;;;;;;;9.27;8.57;;;;;;;16.36;100.00;101017.94;5054645;28;20207;-82
2023/06/23 10:58:24;;;;;;;9.87;9.07;;;;;;;16.39;100.00;101031.88;5045494;28;20216;-82
2023/06/23 11:01:00;;;;;;;10.10;9.40;;;;;;;16.34;100.00;101025.88;5054825;28;20208;-81
2023/06/23 11:03:30;;;;;;;10.40;9.63;;;;;;;16.35;100.00;101045.19;5054157;28;20209;-82
2023/06/23 11:05:58;;;;;;;11.03;10.03;;;;;;;16.36;100.00;101045.13;5054248;28;20751;-83
2023/06/23 11:08:31;;;;;;;11.13;10.13;;;;;;;16.29;100.00;101043.59;5053526;28;20277;-83
2023/06/23 11:11:00;;;;;;;11.10;10.30;;;;;;;16.26;100.00;101059.53;5054690;28;20229;-82
2023/06/23 11:13:34;;;;;;;11.77;10.87;;;;;;;16.33;100.00;101054.91;5053854;28;20890;-82
2023/06/23 11:16:01;;;;;;;13.23;12.03;;;;;;;16.30;100.00;101078.72;5053668;28;20260;-82
2023/06/23 11:18:28;;;;;;;12.50;11.57;;;;;;;16.30;100.00;101091.91;5053445;28;20670;-83
2023/06/23 11:20:55;;;;;;;12.63;11.53;;;;;;;16.25;100.00;101108.72;5057329;28;20216;-80